Time;durP1;ratioP1;P1;durP2;ratioP2;P2;SDS_P1;SDS_P2;PMS_P1;PMS_P2;Temp;Humidity;BMP_temperature;BMP_pressure;BME280_temperature;BME280_humidity;BME280_pressure;Samples;Min_cycle;Max_cycle;Signal;HPM_P1;HPM_P2
2022/01/03 00:01:45;;;;;;;;;;;9.80;99.90;;;;;;5038944;28;19913;-85
2022/01/03 00:04:11;;;;;;;;;;;9.90;99.90;;;;;;5036401;28;19920;-85
2022/01/03 00:06:38;;;;;;;;;;;9.90;99.90;;;;;;5038900;28;19955;-85
2022/01/03 00:09:04;;;;;;;;;;;9.90;99.90;;;;;;5036961;28;20217;-85
2022/01/03 00:11:30;;;;;;;;;;;9.90;99.90;;;;;;5053777;28;19920;-85
2022/01/03 00:13:55;;;;;;;;;;;9.90;99.90;;;;;;5038862;28;20330;-84
2022/01/03 00:16:23;;;;;;;;;;;9.90;99.90;;;;;;5053109;28;19920;-84
2022/01/03 00:18:50;;;;;;;;;;;9.90;99.90;;;;;;5053917;28;19921;-85
2022/01/03 00:21:16;;;;;;;;;;;9.90;99.90;;;;;;5040039;28;19920;-85
2022/01/03 00:24:11;;;;;;;;;;;10.00;99.90;;;;;;5055774;28;20216;-85
2022/01/03 00:26:37;;;;;;;;;;;9.90;99.90;;;;;;5025451;28;19959;-86
2022/01/03 00:29:07;;;;;;;;;;;10.00;99.90;;;;;;5035505;28;19962;-85
2022/01/03 00:31:33;;;;;;;;;;;10.00;99.90;;;;;;5052629;28;19913;-86
2022/01/03 00:33:59;;;;;;;;;;;10.00;99.90;;;;;;5055115;28;19989;-86
2022/01/03 00:36:27;;;;;;;;;;;10.00;99.90;;;;;;5052381;28;20350;-85
2022/01/03 00:38:54;;;;;;;;;;;10.00;99.90;;;;;;5039959;28;19913;-85
2022/01/03 00:41:20;;;;;;;;;;;10.00;99.90;;;;;;5038246;28;19913;-85
2022/01/03 00:43:46;;;;;;;;;;;10.00;99.90;;;;;;5039044;28;19913;-85
2022/01/03 00:46:12;;;;;;;;;;;10.00;99.90;;;;;;5037129;28;19913;-85
2022/01/03 00:48:38;;;;;;;;;;;10.00;99.90;;;;;;5039445;28;20007;-85
2022/01/03 00:51:03;;;;;;;;;;;10.00;99.90;;;;;;5038604;28;19913;-85
2022/01/03 00:53:29;;;;;;;;;;;10.10;99.90;;;;;;5037697;28;19915;-85
2022/01/03 00:56:07;;;;;;;;;;;10.00;99.90;;;;;;5044499;28;19909;-85
2022/01/03 00:58:56;;;;;;;;;;;10.00;99.90;;;;;;5033127;28;19987;-85
2022/01/03 01:01:22;;;;;;;;;;;9.80;99.90;;;;;;5031503;28;19913;-85
2022/01/03 01:03:51;;;;;;;;;;;9.70;99.90;;;;;;5052050;28;20569;-85
2022/01/03 01:06:19;;;;;;;;;;;9.50;99.90;;;;;;5038773;28;19913;-87
2022/01/03 01:08:45;;;;;;;;;;;9.40;99.90;;;;;;5039151;28;20375;-87
2022/01/03 01:11:10;;;;;;;;;;;9.20;99.90;;;;;;5052750;28;20015;-86
2022/01/03 01:13:36;;;;;;;;;;;9.20;99.90;;;;;;5035084;28;19913;-86
2022/01/03 01:16:03;;;;;;;;;;;9.10;99.90;;;;;;5044149;28;19973;-87
2022/01/03 01:18:31;;;;;;;;;;;9.10;99.90;;;;;;5044165;28;20379;-86
2022/01/03 01:20:56;;;;;;;;;;;9.10;99.90;;;;;;5053650;28;19924;-86
2022/01/03 01:23:22;;;;;;;;;;;9.00;99.90;;;;;;5040367;28;19935;-86
2022/01/03 01:28:14;;;;;;;;;;;9.00;99.90;;;;;;5052077;28;19995;-85
2022/01/03 01:30:40;;;;;;;;;;;9.00;99.90;;;;;;5037720;28;20351;-86
2022/01/03 01:33:07;;;;;;;;;;;9.00;99.90;;;;;;5034730;28;19920;-86
2022/01/03 01:35:45;;;;;;;;;;;8.90;99.90;;;;;;5036116;28;19908;-85
2022/01/03 01:38:12;;;;;;;;;;;8.90;99.90;;;;;;5043869;28;19923;-86
2022/01/03 01:40:42;;;;;;;;;;;8.90;99.90;;;;;;5037268;28;19921;-86
2022/01/03 01:43:10;;;;;;;;;;;8.90;99.90;;;;;;5037512;28;20667;-86
2022/01/03 01:45:36;;;;;;;;;;;8.90;99.90;;;;;;5053443;28;20285;-85
2022/01/03 01:48:03;;;;;;;;;;;8.90;99.90;;;;;;5037830;28;20344;-86
2022/01/03 01:50:28;;;;;;;;;;;8.90;99.90;;;;;;5034610;28;20417;-85
2022/01/03 01:52:55;;;;;;;;;;;8.90;99.90;;;;;;5037845;28;19920;-85
2022/01/03 01:55:20;;;;;;;;;;;8.90;99.90;;;;;;5049310;28;19919;-85
2022/01/03 01:58:12;;;;;;;;;;;8.90;99.90;;;;;;5037758;28;20349;-85
2022/01/03 02:00:41;;;;;;;;;;;8.90;99.90;;;;;;5034547;28;19928;-86
2022/01/03 02:03:07;;;;;;;;;;;8.90;99.90;;;;;;5051875;28;20007;-85
2022/01/03 02:05:40;;;;;;;;;;;8.90;99.90;;;;;;5048016;28;20003;-86
2022/01/03 02:08:24;;;;;;;;;;;8.80;99.90;;;;;;5033590;28;20235;-86
2022/01/03 02:10:52;;;;;;;;;;;8.80;99.90;;;;;;5042585;28;20392;-86
2022/01/03 02:13:22;;;;;;;;;;;8.80;99.90;;;;;;5036098;28;19913;-85
2022/01/03 02:15:57;;;;;;;;;;;8.80;99.90;;;;;;5036442;28;19919;-85
2022/01/03 02:18:23;;;;;;;;;;;8.80;99.90;;;;;;5036508;28;19921;-86
2022/01/03 02:20:48;;;;;;;;;;;8.80;99.90;;;;;;5036804;28;19913;-85
2022/01/03 02:23:14;;;;;;;;;;;8.80;99.90;;;;;;5040915;28;20320;-85
2022/01/03 02:25:39;;;;;;;;;;;8.80;99.90;;;;;;5037547;28;19920;-86
2022/01/03 02:28:05;;;;;;;;;;;8.80;99.90;;;;;;5036080;28;19916;-86
2022/01/03 02:30:32;;;;;;;;;;;8.80;99.90;;;;;;5038196;28;19917;-84
2022/01/03 02:32:57;;;;;;;;;;;8.70;99.90;;;;;;5037378;28;20002;-86
2022/01/03 02:35:23;;;;;;;;;;;8.70;99.90;;;;;;5036431;28;20367;-85
2022/01/03 02:37:49;;;;;;;;;;;8.70;99.90;;;;;;5042018;28;20023;-86
2022/01/03 02:40:15;;;;;;;;;;;8.70;99.90;;;;;;5037630;28;19920;-86
2022/01/03 02:42:41;;;;;;;;;;;8.70;99.90;;;;;;5050297;28;20474;-86
2022/01/03 02:45:14;;;;;;;;;;;8.70;99.90;;;;;;5052111;28;19908;-85
2022/01/03 02:47:40;;;;;;;;;;;8.70;99.90;;;;;;5036956;28;20330;-86
2022/01/03 02:50:07;;;;;;;;;;;8.70;99.90;;;;;;5034551;28;19917;-86
2022/01/03 02:52:33;;;;;;;;;;;8.70;99.90;;;;;;5032262;28;20404;-86
2022/01/03 02:54:59;;;;;;;;;;;8.70;99.90;;;;;;5033803;28;21010;-86
2022/01/03 02:57:24;;;;;;;;;;;8.70;99.90;;;;;;5034684;28;19913;-86
2022/01/03 02:59:57;;;;;;;;;;;8.70;99.90;;;;;;5036310;28;20554;-85
2022/01/03 03:02:23;;;;;;;;;;;8.60;99.90;;;;;;5031833;28;19948;-85
2022/01/03 03:04:59;;;;;;;;;;;8.70;99.90;;;;;;5039035;28;19913;-86
2022/01/03 03:07:26;;;;;;;;;;;8.70;99.90;;;;;;5041303;28;20006;-85
2022/01/03 03:09:51;;;;;;;;;;;8.60;99.90;;;;;;5035548;28;20712;-85
2022/01/03 03:12:17;;;;;;;;;;;8.70;99.90;;;;;;5037305;28;19913;-86
2022/01/03 03:14:43;;;;;;;;;;;8.60;99.90;;;;;;5039161;28;19956;-86
2022/01/03 03:17:09;;;;;;;;;;;8.70;99.90;;;;;;5035582;28;19908;-86
2022/01/03 03:19:53;;;;;;;;;;;8.70;99.90;;;;;;5035556;28;20391;-86
2022/01/03 03:22:18;;;;;;;;;;;8.70;99.90;;;;;;5049186;28;19922;-85
2022/01/03 03:24:44;;;;;;;;;;;8.60;99.90;;;;;;5037884;28;20291;-85
2022/01/03 03:27:10;;;;;;;;;;;8.60;99.90;;;;;;5035907;28;19917;-85
2022/01/03 03:29:41;;;;;;;;;;;8.70;99.90;;;;;;5051405;28;19962;-85
2022/01/03 03:32:06;;;;;;;;;;;8.70;99.90;;;;;;5050321;28;20003;-86
2022/01/03 03:34:32;;;;;;;;;;;8.70;99.90;;;;;;5048746;28;19995;-85
2022/01/03 03:36:57;;;;;;;;;;;8.70;99.90;;;;;;5039197;28;19913;-87
2022/01/03 03:39:24;;;;;;;;;;;8.70;99.90;;;;;;5057888;28;20003;-86
2022/01/03 03:41:49;;;;;;;;;;;8.70;99.90;;;;;;5040009;28;20212;-85
2022/01/03 03:44:14;;;;;;;;;;;8.70;99.90;;;;;;5038882;28;20315;-86
2022/01/03 03:46:40;;;;;;;;;;;8.70;99.90;;;;;;5037203;28;19987;-85
2022/01/03 03:49:06;;;;;;;;;;;8.70;99.90;;;;;;5047200;28;19912;-86
2022/01/03 03:51:38;;;;;;;;;;;8.60;99.90;;;;;;5055825;28;19908;-87
2022/01/03 03:54:03;;;;;;;;;;;8.60;99.90;;;;;;5057112;28;19915;-85
2022/01/03 03:56:29;;;;;;;;;;;8.60;99.90;;;;;;5038937;28;19912;-86
2022/01/03 03:58:54;;;;;;;;;;;8.60;99.90;;;;;;5038185;28;19917;-87
2022/01/03 04:01:20;;;;;;;;;;;8.60;99.90;;;;;;5039462;28;20668;-87
2022/01/03 04:03:45;;;;;;;;;;;8.60;99.90;;;;;;5056332;28;19909;-87
2022/01/03 04:06:11;;;;;;;;;;;8.60;99.90;;;;;;5055472;28;19965;-86
2022/01/03 04:08:36;;;;;;;;;;;8.60;99.90;;;;;;5038220;28;19916;-88
2022/01/03 04:11:02;;;;;;;;;;;8.60;99.90;;;;;;5038462;28;20014;-86
2022/01/03 04:13:27;;;;;;;;;;;8.60;99.90;;;;;;5038260;28;19928;-86
2022/01/03 04:15:53;;;;;;;;;;;8.60;99.90;;;;;;5053762;28;20318;-87
2022/01/03 04:18:18;;;;;;;;;;;8.60;99.90;;;;;;5038386;28;20070;-86
2022/01/03 04:20:44;;;;;;;;;;;8.60;99.90;;;;;;5052461;28;19912;-90
2022/01/03 04:23:09;;;;;;;;;;;8.60;99.90;;;;;;5039790;28;20089;-87
2022/01/03 04:25:35;;;;;;;;;;;8.60;99.90;;;;;;5040644;28;20333;-87
2022/01/03 04:28:00;;;;;;;;;;;8.60;99.90;;;;;;5039353;28;20369;-88
2022/01/03 04:30:26;;;;;;;;;;;8.60;99.90;;;;;;5052603;28;20458;-88
2022/01/03 04:32:51;;;;;;;;;;;8.70;99.90;;;;;;5038904;28;19999;-88
2022/01/03 04:35:17;;;;;;;;;;;8.60;99.90;;;;;;5040050;28;20338;-89
2022/01/03 04:37:42;;;;;;;;;;;8.60;99.90;;;;;;5039831;28;19962;-88
2022/01/03 04:40:08;;;;;;;;;;;8.70;99.90;;;;;;5038757;28;19921;-86
2022/01/03 04:42:34;;;;;;;;;;;8.70;99.90;;;;;;5039969;28;20249;-88
2022/01/03 04:45:01;;;;;;;;;;;8.70;99.90;;;;;;5055735;28;19924;-88
2022/01/03 04:47:27;;;;;;;;;;;8.60;99.90;;;;;;5037932;28;19913;-88
2022/01/03 04:49:52;;;;;;;;;;;8.60;99.90;;;;;;5041138;28;19916;-88
2022/01/03 04:52:18;;;;;;;;;;;8.50;99.90;;;;;;5035505;28;19908;-86
2022/01/03 04:54:43;;;;;;;;;;;8.60;99.90;;;;;;5037504;28;20077;-87
2022/01/03 04:57:09;;;;;;;;;;;8.50;99.90;;;;;;5040274;28;20409;-86
2022/01/03 04:59:34;;;;;;;;;;;8.40;99.90;;;;;;5054821;28;20386;-87
2022/01/03 05:02:03;;;;;;;;;;;8.50;99.90;;;;;;5053429;28;20011;-85
2022/01/03 05:04:29;;;;;;;;;;;8.50;99.90;;;;;;5040391;28;20417;-88
2022/01/03 05:06:54;;;;;;;;;;;8.40;99.90;;;;;;5039985;28;19913;-87
2022/01/03 05:09:20;;;;;;;;;;;8.40;99.90;;;;;;5054287;28;20352;-87
2022/01/03 05:11:45;;;;;;;;;;;8.40;99.90;;;;;;5039594;28;19916;-87
2022/01/03 05:14:11;;;;;;;;;;;8.30;99.90;;;;;;5039046;28;19908;-86
2022/01/03 05:16:36;;;;;;;;;;;8.30;99.90;;;;;;5037623;28;19913;-85
2022/01/03 05:19:02;;;;;;;;;;;8.40;99.90;;;;;;5038708;28;19921;-86
2022/01/03 05:21:27;;;;;;;;;;;8.30;99.90;;;;;;5044057;28;19916;-85
2022/01/03 05:23:53;;;;;;;;;;;8.30;99.90;;;;;;5055005;28;20322;-86
2022/01/03 05:26:18;;;;;;;;;;;8.30;99.90;;;;;;5039295;28;20385;-85
2022/01/03 05:28:45;;;;;;;;;;;8.20;99.90;;;;;;5037759;28;19920;-86
2022/01/03 05:31:13;;;;;;;;;;;8.20;99.90;;;;;;5055236;28;19912;-85
2022/01/03 05:33:39;;;;;;;;;;;8.20;99.90;;;;;;5051936;28;19917;-84
2022/01/03 05:36:05;;;;;;;;;;;8.10;99.90;;;;;;5054109;28;20314;-85
2022/01/03 05:38:31;;;;;;;;;;;8.10;99.90;;;;;;5037763;28;19923;-85
2022/01/03 05:40:56;;;;;;;;;;;8.10;99.90;;;;;;5038278;28;20287;-86
2022/01/03 05:43:21;;;;;;;;;;;8.10;99.90;;;;;;5034709;28;19915;-85
2022/01/03 05:45:47;;;;;;;;;;;8.10;99.90;;;;;;5052542;28;20353;-85
2022/01/03 05:48:13;;;;;;;;;;;8.10;99.90;;;;;;5036042;28;19913;-85
2022/01/03 05:50:38;;;;;;;;;;;8.10;99.90;;;;;;5035377;28;19916;-84
2022/01/03 05:53:03;;;;;;;;;;;8.10;99.90;;;;;;5034758;28;19916;-85
2022/01/03 05:55:29;;;;;;;;;;;8.20;99.90;;;;;;5052733;28;19920;-86
2022/01/03 05:57:54;;;;;;;;;;;8.10;99.90;;;;;;5035885;28;19913;-88
2022/01/03 06:00:23;;;;;;;;;;;8.20;99.90;;;;;;5035731;28;19912;-88
2022/01/03 06:02:53;;;;;;;;;;;8.20;99.90;;;;;;5049124;28;19999;-89
2022/01/03 06:05:52;;;;;;;;;;;8.20;99.90;;;;;;5035577;28;20413;-88
2022/01/03 06:08:05;;;;;;;;;;;8.20;99.90;;;;;;5050144;28;20587;-89
2022/01/03 06:10:30;;;;;;;;;;;8.20;99.90;;;;;;5037511;28;19920;-88
2022/01/03 06:12:56;;;;;;;;;;;8.20;99.90;;;;;;5036787;28;19916;-89
2022/01/03 06:15:24;;;;;;;;;;;8.20;99.90;;;;;;5052754;28;19909;-89
2022/01/03 06:17:49;;;;;;;;;;;8.10;99.90;;;;;;5037282;28;20311;-89
2022/01/03 06:20:15;;;;;;;;;;;8.10;99.90;;;;;;5042763;28;19921;-88
2022/01/03 06:22:41;;;;;;;;;;;8.20;99.90;;;;;;5035127;28;19978;-87
2022/01/03 06:25:08;;;;;;;;;;;8.10;99.90;;;;;;5036699;28;19919;-86
2022/01/03 06:27:33;;;;;;;;;;;8.20;99.90;;;;;;5038559;28;19912;-87
2022/01/03 06:29:59;;;;;;;;;;;8.10;99.90;;;;;;5035032;28;19994;-86
2022/01/03 06:32:24;;;;;;;;;;;8.20;99.90;;;;;;5036405;28;19918;-86
2022/01/03 06:34:52;;;;;;;;;;;8.30;99.90;;;;;;5050353;28;20335;-87
2022/01/03 06:37:18;;;;;;;;;;;8.10;99.90;;;;;;5034649;28;19912;-87
2022/01/03 06:39:44;;;;;;;;;;;8.10;99.90;;;;;;5035935;28;20373;-87
2022/01/03 06:42:09;;;;;;;;;;;8.20;99.90;;;;;;5034094;28;19916;-86
2022/01/03 06:44:35;;;;;;;;;;;8.20;99.90;;;;;;5035342;28;19920;-86
2022/01/03 06:47:00;;;;;;;;;;;8.20;99.90;;;;;;5032464;28;19919;-90
2022/01/03 06:49:26;;;;;;;;;;;8.20;99.90;;;;;;5036412;28;19981;-88
2022/01/03 06:51:51;;;;;;;;;;;8.20;99.90;;;;;;5037714;28;19912;-88
2022/01/03 06:54:17;;;;;;;;;;;8.20;99.90;;;;;;5036005;28;19919;-88
2022/01/03 06:56:42;;;;;;;;;;;8.30;99.90;;;;;;5036825;28;19915;-86
2022/01/03 06:59:08;;;;;;;;;;;8.20;99.90;;;;;;5034489;28;20326;-85
2022/01/03 07:01:43;;;;;;;;;;;8.20;99.90;;;;;;5025543;28;20633;-89
2022/01/03 07:04:08;;;;;;;;;;;8.30;99.90;;;;;;5026025;28;20268;-87
2022/01/03 07:06:36;;;;;;;;;;;8.30;99.90;;;;;;5052870;28;19916;-87
2022/01/03 07:09:05;;;;;;;;;;;8.30;99.90;;;;;;5034283;28;20300;-88
2022/01/03 07:11:30;;;;;;;;;;;8.30;99.90;;;;;;5038717;28;20296;-88
2022/01/03 07:18:55;;;;;;;;;;;8.30;99.90;;;;;;5037378;28;19912;-88
2022/01/03 07:19:25;;;;;;;;;;;8.30;99.90;;;;;;5051012;28;20338;-88
2022/01/03 07:21:51;;;;;;;;;;;8.30;99.90;;;;;;5035529;28;19916;-88
2022/01/03 07:24:16;;;;;;;;;;;8.30;99.90;;;;;;5039224;28;19912;-87
2022/01/03 07:26:42;;;;;;;;;;;8.40;99.90;;;;;;5037329;28;19908;-87
2022/01/03 07:29:10;;;;;;;;;;;8.30;99.90;;;;;;5036514;28;19923;-87
2022/01/03 07:31:36;;;;;;;;;;;8.40;99.90;;;;;;5043012;28;19924;-87
2022/01/03 07:34:01;;;;;;;;;;;8.40;99.90;;;;;;5036589;28;19983;-87
2022/01/03 07:36:27;;;;;;;;;;;8.40;99.90;;;;;;5037211;28;19916;-87
2022/01/03 07:38:53;;;;;;;;;;;8.40;99.90;;;;;;5050305;28;20004;-88
2022/01/03 07:41:19;;;;;;;;;;;8.30;99.90;;;;;;5043511;28;20594;-87
2022/01/03 07:43:44;;;;;;;;;;;8.40;99.90;;;;;;5038999;28;20377;-88
2022/01/03 07:46:10;;;;;;;;;;;8.30;99.90;;;;;;5034985;28;19909;-88
2022/01/03 07:48:36;;;;;;;;;;;8.30;99.90;;;;;;5052788;28;19916;-89
2022/01/03 07:51:01;;;;;;;;;;;8.30;99.90;;;;;;5043543;28;20352;-89
2022/01/03 07:53:27;;;;;;;;;;;8.30;99.90;;;;;;5034622;28;19934;-89
2022/01/03 07:55:53;;;;;;;;;;;8.20;99.90;;;;;;5035587;28;19925;-89
2022/01/03 07:58:18;;;;;;;;;;;8.20;99.90;;;;;;5036748;28;20011;-88
2022/01/03 08:00:45;;;;;;;;;;;8.20;99.90;;;;;;5033473;28;19913;-87
2022/01/03 08:03:10;;;;;;;;;;;8.20;99.90;;;;;;5036722;28;19913;-87
2022/01/03 08:05:36;;;;;;;;;;;8.20;99.90;;;;;;5030305;28;19969;-87
2022/01/03 08:08:03;;;;;;;;;;;8.20;99.90;;;;;;5032608;28;19970;-87
2022/01/03 08:10:29;;;;;;;;;;;8.20;99.90;;;;;;5033574;28;20284;-88
2022/01/03 08:12:54;;;;;;;;;;;8.10;99.90;;;;;;5052154;28;19912;-88
2022/01/03 08:15:20;;;;;;;;;;;8.20;99.90;;;;;;5036225;28;20277;-87
2022/01/03 08:17:46;;;;;;;;;;;8.10;99.90;;;;;;5034246;28;19970;-87
2022/01/03 08:20:12;;;;;;;;;;;8.10;99.90;;;;;;5051490;28;19924;-88
2022/01/03 08:22:37;;;;;;;;;;;8.20;99.90;;;;;;5044172;28;19912;-88
2022/01/03 08:25:03;;;;;;;;;;;8.20;99.90;;;;;;5038873;28;19912;-88
2022/01/03 08:27:29;;;;;;;;;;;8.20;99.90;;;;;;5037722;28;19940;-86
2022/01/03 08:29:54;;;;;;;;;;;8.20;99.90;;;;;;5042000;28;19921;-84
2022/01/03 08:32:20;;;;;;;;;;;8.40;99.90;;;;;;5039082;28;19912;-84
2022/01/03 08:34:45;;;;;;;;;;;8.50;99.90;;;;;;5053200;28;19912;-85
2022/01/03 08:37:11;;;;;;;;;;;8.60;99.90;;;;;;5036502;28;20484;-85
2022/01/03 08:39:37;;;;;;;;;;;8.50;99.90;;;;;;5051924;28;19924;-85
2022/01/03 08:42:02;;;;;;;;;;;8.40;99.90;;;;;;5035778;28;19913;-85
2022/01/03 08:44:28;;;;;;;;;;;8.30;99.90;;;;;;5036580;28;19912;-85
2022/01/03 08:46:53;;;;;;;;;;;8.30;99.90;;;;;;5040189;28;19969;-84
2022/01/03 08:49:19;;;;;;;;;;;8.20;99.90;;;;;;5037780;28;19920;-86
2022/01/03 08:51:45;;;;;;;;;;;8.20;99.90;;;;;;5047282;28;20039;-85
2022/01/03 08:54:11;;;;;;;;;;;8.20;99.90;;;;;;5037587;28;19979;-85
2022/01/03 08:56:39;;;;;;;;;;;8.20;99.90;;;;;;5034080;28;20243;-86
2022/01/03 08:59:05;;;;;;;;;;;8.20;99.90;;;;;;5052549;28;19921;-85
2022/01/03 09:01:31;;;;;;;;;;;8.20;99.90;;;;;;5035441;28;20339;-85
2022/01/03 09:03:56;;;;;;;;;;;8.30;99.90;;;;;;5036768;28;19913;-86
2022/01/03 09:06:22;;;;;;;;;;;8.30;99.90;;;;;;5038580;28;20026;-86
2022/01/03 09:08:48;;;;;;;;;;;8.30;99.90;;;;;;5037495;28;19908;-86
2022/01/03 09:11:14;;;;;;;;;;;8.40;99.90;;;;;;5045371;28;21165;-85
2022/01/03 09:13:39;;;;;;;;;;;8.40;99.90;;;;;;5053530;28;20414;-86
2022/01/03 09:16:07;;;;;;;;;;;8.50;99.90;;;;;;5036543;28;19963;-85
2022/01/03 09:18:33;;;;;;;;;;;8.50;99.90;;;;;;5024100;28;19920;-86
2022/01/03 09:20:58;;;;;;;;;;;8.60;99.90;;;;;;5040670;28;19913;-86
2022/01/03 09:23:28;;;;;;;;;;;8.60;99.90;;;;;;5053822;28;20391;-85
2022/01/03 09:28:52;;;;;;;;;;;8.60;99.90;;;;;;5050962;28;19922;-86
2022/01/03 09:31:24;;;;;;;;;;;8.60;99.90;;;;;;5051606;28;20006;-85
2022/01/03 09:33:50;;;;;;;;;;;8.60;99.90;;;;;;5051589;28;19959;-85
2022/01/03 09:36:16;;;;;;;;;;;8.60;99.90;;;;;;5050822;28;19916;-86
2022/01/03 09:38:41;;;;;;;;;;;8.60;99.90;;;;;;5035197;28;20487;-85
2022/01/03 09:41:07;;;;;;;;;;;8.60;99.90;;;;;;5051724;28;20350;-85
2022/01/03 09:43:41;;;;;;;;;;;8.60;99.90;;;;;;5036257;28;19909;-85
2022/01/03 09:46:08;;;;;;;;;;;8.60;99.90;;;;;;5049181;28;20670;-85
2022/01/03 09:48:35;;;;;;;;;;;8.60;99.90;;;;;;5050692;28;19912;-86
2022/01/03 09:51:06;;;;;;;;;;;8.60;99.90;;;;;;5008799;28;19909;-86
2022/01/03 09:53:32;;;;;;;;;;;8.70;99.90;;;;;;5044414;28;20130;-86
2022/01/03 09:55:58;;;;;;;;;;;8.70;99.90;;;;;;5036575;28;19923;-87
2022/01/03 09:58:24;;;;;;;;;;;8.70;99.90;;;;;;5035694;28;20206;-86
2022/01/03 10:00:50;;;;;;;;;;;8.70;99.90;;;;;;5043383;28;19966;-86
2022/01/03 10:03:15;;;;;;;;;;;8.80;99.90;;;;;;5051476;28;19920;-86
2022/01/03 10:05:41;;;;;;;;;;;8.80;99.90;;;;;;5037835;28;20336;-87
2022/01/03 10:08:07;;;;;;;;;;;8.90;99.90;;;;;;5040649;28;20018;-87
2022/01/03 10:10:32;;;;;;;;;;;8.90;99.90;;;;;;5032599;28;20411;-87
2022/01/03 10:12:58;;;;;;;;;;;9.00;99.90;;;;;;5037938;28;19924;-88
2022/01/03 10:15:24;;;;;;;;;;;9.00;99.90;;;;;;5035664;28;20002;-87
2022/01/03 10:17:51;;;;;;;;;;;9.10;99.90;;;;;;5033565;28;19951;-87
2022/01/03 10:20:17;;;;;;;;;;;9.10;99.90;;;;;;5039427;28;19965;-86
2022/01/03 10:22:42;;;;;;;;;;;9.20;99.90;;;;;;5033735;28;19912;-87
2022/01/03 10:25:10;;;;;;;;;;;9.30;99.90;;;;;;5036006;28;20387;-86
2022/01/03 10:27:44;;;;;;;;;;;9.40;99.90;;;;;;5036928;28;20507;-87
2022/01/03 10:30:10;;;;;;;;;;;9.60;99.90;;;;;;5047370;28;20103;-87
2022/01/03 10:32:38;;;;;;;;;;;9.70;99.90;;;;;;5032113;28;19919;-88
2022/01/03 10:35:15;;;;;;;;;;;9.80;99.90;;;;;;5048428;28;19912;-87
2022/01/03 10:37:41;;;;;;;;;;;9.90;99.90;;;;;;5032677;28;19913;-87
2022/01/03 10:40:28;;;;;;;;;;;10.00;99.90;;;;;;5032239;28;20003;-87
2022/01/03 10:42:54;;;;;;;;;;;10.20;99.90;;;;;;5032740;28;19908;-86
2022/01/03 10:45:27;;;;;;;;;;;10.50;99.90;;;;;;5031748;28;19913;-87
2022/01/03 10:47:53;;;;;;;;;;;10.50;99.90;;;;;;5034171;28;19931;-87
2022/01/03 10:50:19;;;;;;;;;;;10.40;99.90;;;;;;5048240;28;19912;-86
2022/01/03 10:52:48;;;;;;;;;;;10.20;99.90;;;;;;5034628;28;19951;-88
2022/01/03 10:55:15;;;;;;;;;;;10.00;99.90;;;;;;5033278;28;19913;-87
2022/01/03 10:57:43;;;;;;;;;;;9.90;99.90;;;;;;5034105;28;19919;-87
2022/01/03 11:00:16;;;;;;;;;;;9.90;99.90;;;;;;5033502;28;19965;-87
2022/01/03 11:03:03;;;;;;;;;;;9.80;99.90;;;;;;5033711;28;20380;-86
2022/01/03 11:05:36;;;;;;;;;;;9.80;99.90;;;;;;5031728;28;19919;-87
2022/01/03 11:10:56;;;;;;;;;;;9.70;99.90;;;;;;5048871;28;20326;-87
2022/01/03 11:13:22;;;;;;;;;;;9.70;99.90;;;;;;5036547;28;19917;-86
2022/01/03 11:15:55;;;;;;;;;;;9.70;99.90;;;;;;5036340;28;19908;-86
2022/01/03 11:18:24;;;;;;;;;;;9.70;99.90;;;;;;5051745;28;20279;-87
2022/01/03 11:21:16;;;;;;;;;;;9.80;99.90;;;;;;5034111;28;20439;-86
2022/01/03 11:23:46;;;;;;;;;;;10.00;99.90;;;;;;5036897;28;19959;-87
2022/01/03 11:26:15;;;;;;;;;;;10.00;99.90;;;;;;5017815;28;20331;-87
2022/01/03 11:28:42;;;;;;;;;;;10.00;99.90;;;;;;5039430;28;19944;-87
2022/01/03 11:31:08;;;;;;;;;;;10.00;99.90;;;;;;5035131;28;19967;-86
2022/01/03 11:33:34;;;;;;;;;;;10.00;99.90;;;;;;5030005;28;20324;-87
2022/01/03 11:36:01;;;;;;;;;;;10.10;99.90;;;;;;5032957;28;19948;-87
2022/01/03 11:38:30;;;;;;;;;;;10.20;99.90;;;;;;5035984;28;19913;-86
2022/01/03 11:40:58;;;;;;;;;;;10.20;99.90;;;;;;5030842;28;20357;-86
2022/01/03 11:43:24;;;;;;;;;;;10.20;99.90;;;;;;5052559;28;19908;-87
2022/01/03 11:45:49;;;;;;;;;;;10.20;99.90;;;;;;5036642;28;19912;-86
2022/01/03 11:48:15;;;;;;;;;;;10.40;99.90;;;;;;5042941;28;19931;-86
2022/01/03 11:50:41;;;;;;;;;;;10.30;99.90;;;;;;5031893;28;19962;-87
2022/01/03 11:53:07;;;;;;;;;;;10.30;99.90;;;;;;5051504;28;19913;-87
2022/01/03 11:55:37;;;;;;;;;;;10.40;99.90;;;;;;5040061;28;19915;-87
2022/01/03 12:03:38;;;;;;;;;;;10.50;99.90;;;;;;5044695;28;20006;-86
2022/01/03 12:06:06;;;;;;;;;;;10.40;99.90;;;;;;5029737;28;19921;-87
2022/01/03 12:08:35;;;;;;;;;;;10.40;99.90;;;;;;5045066;28;19994;-87
2022/01/03 12:11:02;;;;;;;;;;;10.50;99.90;;;;;;5055148;28;20425;-86
2022/01/03 12:13:46;;;;;;;;;;;10.50;99.90;;;;;;5036375;28;20328;-86
2022/01/03 12:16:12;;;;;;;;;;;10.50;99.90;;;;;;5053587;28;19912;-86
2022/01/03 12:18:38;;;;;;;;;;;10.50;99.90;;;;;;5037479;28;19925;-86
2022/01/03 12:21:06;;;;;;;;;;;10.50;99.90;;;;;;5033402;28;20591;-86
2022/01/03 12:23:42;;;;;;;;;;;10.50;99.90;;;;;;5038093;28;20279;-86
2022/01/03 12:26:12;;;;;;;;;;;10.60;99.90;;;;;;5036885;28;19952;-86
2022/01/03 12:28:57;;;;;;;;;;;10.50;99.90;;;;;;5035886;28;19920;-86
2022/01/03 12:31:22;;;;;;;;;;;10.60;99.90;;;;;;5037581;28;19991;-85
2022/01/03 12:34:06;;;;;;;;;;;10.60;99.90;;;;;;5037559;28;19991;-86
2022/01/03 12:36:32;;;;;;;;;;;10.50;99.90;;;;;;5038277;28;19912;-86
2022/01/03 12:39:02;;;;;;;;;;;10.50;99.90;;;;;;5037596;28;19923;-86
2022/01/03 12:41:44;;;;;;;;;;;10.60;99.90;;;;;;5043390;28;19919;-86
2022/01/03 12:44:11;;;;;;;;;;;10.70;99.90;;;;;;5054359;28;20372;-85
2022/01/03 12:46:36;;;;;;;;;;;10.90;99.90;;;;;;5051056;28;20332;-86
2022/01/03 12:49:21;;;;;;;;;;;10.90;99.90;;;;;;5034608;28;19913;-86
2022/01/03 12:51:46;;;;;;;;;;;11.10;99.90;;;;;;5033028;28;20011;-86
2022/01/03 12:54:12;;;;;;;;;;;11.00;99.90;;;;;;5037599;28;19991;-87
2022/01/03 12:56:37;;;;;;;;;;;10.90;99.90;;;;;;5037086;28;19978;-86
2022/01/03 12:59:10;;;;;;;;;;;11.10;99.90;;;;;;5040597;28;19917;-87
2022/01/03 13:01:36;;;;;;;;;;;11.00;99.90;;;;;;5053120;28;20310;-87
2022/01/03 13:04:17;;;;;;;;;;;10.90;99.90;;;;;;5037218;28;19932;-86
2022/01/03 13:06:43;;;;;;;;;;;10.80;99.90;;;;;;5035568;28;20455;-86
2022/01/03 13:09:13;;;;;;;;;;;10.70;99.90;;;;;;5053654;28;19915;-87
2022/01/03 13:11:45;;;;;;;;;;;10.70;99.90;;;;;;5038811;28;19976;-87
2022/01/03 13:14:12;;;;;;;;;;;10.70;99.90;;;;;;5044362;28;19971;-86
2022/01/03 13:16:38;;;;;;;;;;;10.70;99.90;;;;;;5052121;28;20729;-85
2022/01/03 13:19:06;;;;;;;;;;;10.70;99.90;;;;;;5035413;28;19917;-86
2022/01/03 13:21:36;;;;;;;;;;;10.70;99.90;;;;;;5053032;28;19967;-87
2022/01/03 13:24:09;;;;;;;;;;;10.70;99.90;;;;;;5037426;28;19912;-87
2022/01/03 13:26:50;;;;;;;;;;;10.80;99.90;;;;;;5050218;28;19908;-86
2022/01/03 13:29:15;;;;;;;;;;;10.90;99.90;;;;;;5056446;28;19963;-87
2022/01/03 13:31:41;;;;;;;;;;;10.90;99.90;;;;;;5038429;28;19967;-87
2022/01/03 13:34:06;;;;;;;;;;;11.10;99.90;;;;;;5026819;28;20524;-87
2022/01/03 13:36:33;;;;;;;;;;;11.20;99.90;;;;;;5050528;28;19913;-87
2022/01/03 13:39:07;;;;;;;;;;;11.20;99.90;;;;;;5037289;28;20327;-87
2022/01/03 13:41:34;;;;;;;;;;;11.10;99.90;;;;;;5036973;28;20135;-87
2022/01/03 13:44:00;;;;;;;;;;;11.10;99.90;;;;;;5050883;28;20037;-88
2022/01/03 13:49:16;;;;;;;;;;;10.90;99.90;;;;;;5043378;28;19925;-86
2022/01/03 13:51:48;;;;;;;;;;;10.90;99.90;;;;;;5035506;28;20412;-86
2022/01/03 13:54:23;;;;;;;;;;;10.80;99.90;;;;;;5034533;28;20523;-86
2022/01/03 13:56:49;;;;;;;;;;;10.80;99.90;;;;;;5052234;28;19913;-84
2022/01/03 13:59:15;;;;;;;;;;;10.80;99.90;;;;;;5035015;28;19923;-85
2022/01/03 14:01:41;;;;;;;;;;;10.70;99.90;;;;;;5050884;28;19951;-86
2022/01/03 14:04:06;;;;;;;;;;;10.70;99.90;;;;;;5040166;28;19999;-85
2022/01/03 14:06:32;;;;;;;;;;;10.70;99.90;;;;;;5037416;28;19920;-86
2022/01/03 14:08:58;;;;;;;;;;;10.70;99.90;;;;;;5034483;28;20470;-86
2022/01/03 14:11:26;;;;;;;;;;;10.70;99.90;;;;;;5037403;28;19916;-86
2022/01/03 14:13:52;;;;;;;;;;;10.70;99.90;;;;;;5043248;28;19962;-87
2022/01/03 14:16:17;;;;;;;;;;;10.60;99.90;;;;;;5034533;28;19909;-86
2022/01/03 14:18:47;;;;;;;;;;;10.60;99.90;;;;;;5051423;28;19959;-87
2022/01/03 14:21:28;;;;;;;;;;;10.60;99.90;;;;;;5037021;28;20537;-86
2022/01/03 14:23:56;;;;;;;;;;;10.60;99.90;;;;;;5031383;28;19931;-86
2022/01/03 14:26:23;;;;;;;;;;;10.70;99.90;;;;;;5033052;28;20345;-84
2022/01/03 14:28:49;;;;;;;;;;;10.60;99.90;;;;;;5050150;28;19912;-86
2022/01/03 14:31:15;;;;;;;;;;;10.60;99.90;;;;;;5035342;28;19942;-86
2022/01/03 14:33:41;;;;;;;;;;;10.70;99.90;;;;;;5053562;28;19912;-86
2022/01/03 14:36:11;;;;;;;;;;;10.60;99.90;;;;;;5037111;28;19920;-86
2022/01/03 14:38:40;;;;;;;;;;;10.60;99.90;;;;;;5051087;28;20248;-86
2022/01/03 14:41:12;;;;;;;;;;;10.70;99.90;;;;;;5049959;28;19912;-87
2022/01/03 14:43:37;;;;;;;;;;;10.60;99.90;;;;;;5042363;28;19924;-86
2022/01/03 14:46:07;;;;;;;;;;;10.60;99.90;;;;;;5034480;28;20271;-87
2022/01/03 14:48:33;;;;;;;;;;;10.60;99.90;;;;;;5035198;28;20359;-85